Time;durP1;ratioP1;P1;durP2;ratioP2;P2;SDS_P1;SDS_P2;PMS_P1;PMS_P2;Temp;Humidity;BMP_temperature;BMP_pressure;BME280_temperature;BME280_humidity;BME280_pressure;Samples;Min_cycle;Max_cycle;Signal;HPM_P1;HPM_P2
2022/01/28 00:01:34;;;;;;;;;;;4.80;62.50;;;;;;6300692;28;20000;-70
2022/01/28 00:04:35;;;;;;;;;;;4.80;62.50;;;;;;6301137;28;19919;-69
2022/01/28 00:07:36;;;;;;;;;;;4.80;62.60;;;;;;6299401;28;19908;-70
2022/01/28 00:10:40;;;;;;;;;;;4.80;62.40;;;;;;6317343;28;19914;-69
2022/01/28 00:13:42;;;;;;;;;;;4.70;62.40;;;;;;6316301;28;20015;-72
2022/01/28 00:39:49;;;;;;;;;;;4.90;63.00;;;;;;6286967;28;19923;-70
2022/01/28 00:42:50;;;;;;;;;;;4.90;62.10;;;;;;6300396;28;19908;-69
2022/01/28 00:45:50;;;;;;;;;;;4.90;62.10;;;;;;6300386;28;19919;-69
2022/01/28 00:48:51;;;;;;;;;;;4.90;61.90;;;;;;6300401;28;19907;-71
2022/01/28 00:51:52;;;;;;;;;;;4.90;62.00;;;;;;6317994;28;19908;-70
2022/01/28 00:54:52;;;;;;;;;;;4.90;62.10;;;;;;6299289;28;20008;-69
2022/01/28 00:57:53;;;;;;;;;;;4.90;62.10;;;;;;6300080;28;19919;-70
2022/01/28 01:00:54;;;;;;;;;;;4.80;61.80;;;;;;6317913;28;19963;-70
2022/01/28 01:03:58;;;;;;;;;;;4.70;61.60;;;;;;6317949;28;19908;-69
2022/01/28 01:07:01;;;;;;;;;;;4.70;61.50;;;;;;6318049;28;19969;-70
2022/01/28 01:10:03;;;;;;;;;;;4.70;61.30;;;;;;6316648;28;20408;-72
2022/01/28 01:13:04;;;;;;;;;;;4.70;61.20;;;;;;6304405;28;19923;-71
2022/01/28 01:16:05;;;;;;;;;;;4.60;60.90;;;;;;6323557;28;19908;-71
2022/01/28 01:22:11;;;;;;;;;;;4.60;60.80;;;;;;6323465;28;19908;-71
2022/01/28 01:25:16;;;;;;;;;;;4.60;60.90;;;;;;6315103;28;19927;-70
2022/01/28 01:28:19;;;;;;;;;;;4.60;61.10;;;;;;6304786;28;20363;-70
2022/01/28 01:31:21;;;;;;;;;;;4.60;61.30;;;;;;6305108;28;19908;-72
2022/01/28 01:34:23;;;;;;;;;;;4.60;61.30;;;;;;6305034;28;19915;-71
2022/01/28 01:37:24;;;;;;;;;;;4.60;61.40;;;;;;6304917;28;19961;-70
2022/01/28 01:40:30;;;;;;;;;;;4.60;61.40;;;;;;6319618;28;20224;-70
2022/01/28 01:43:51;;;;;;;;;;;4.70;61.50;;;;;;6323382;28;19908;-70
2022/01/28 01:53:37;;;;;;;;;;;4.70;61.60;;;;;;6304269;28;19908;-70
2022/01/28 01:56:38;;;;;;;;;;;4.70;61.60;;;;;;6304009;28;19916;-70
2022/01/28 01:59:39;;;;;;;;;;;4.70;61.70;;;;;;6287638;28;20415;-70
2022/01/28 02:02:40;;;;;;;;;;;4.70;61.90;;;;;;6304160;28;19915;-70
2022/01/28 02:05:41;;;;;;;;;;;4.70;61.90;;;;;;6287636;28;20316;-71
2022/01/28 02:08:42;;;;;;;;;;;4.70;62.00;;;;;;6316173;28;20299;-70
2022/01/28 02:11:42;;;;;;;;;;;4.70;61.90;;;;;;6280686;28;20348;-69
2022/01/28 02:14:43;;;;;;;;;;;4.70;61.80;;;;;;6318351;28;19908;-70
2022/01/28 02:17:44;;;;;;;;;;;4.70;61.90;;;;;;6286032;28;21195;-70
2022/01/28 02:20:48;;;;;;;;;;;4.70;62.00;;;;;;6303346;28;20504;-70
2022/01/28 02:23:55;;;;;;;;;;;4.60;62.00;;;;;;6302501;28;20017;-71
2022/01/28 02:26:56;;;;;;;;;;;4.70;62.00;;;;;;6303574;28;19966;-70
2022/01/28 02:29:57;;;;;;;;;;;4.90;62.10;;;;;;6303643;28;19918;-70
2022/01/28 02:33:09;;;;;;;;;;;4.70;61.90;;;;;;6320743;28;19908;-71
2022/01/28 02:36:09;;;;;;;;;;;4.70;61.90;;;;;;6286781;28;19966;-71
2022/01/28 02:39:11;;;;;;;;;;;4.70;61.80;;;;;;6316523;28;19911;-69
2022/01/28 02:42:19;;;;;;;;;;;4.70;61.80;;;;;;6321295;28;19943;-70
2022/01/28 02:45:35;;;;;;;;;;;4.70;61.60;;;;;;6303246;28;20272;-70
2022/01/28 02:48:39;;;;;;;;;;;4.70;61.40;;;;;;6320797;28;19907;-70
2022/01/28 02:51:40;;;;;;;;;;;4.70;61.40;;;;;;6303078;28;19987;-70
2022/01/28 02:54:46;;;;;;;;;;;4.70;61.20;;;;;;6303219;28;19908;-70
2022/01/28 02:58:02;;;;;;;;;;;4.70;61.20;;;;;;6286391;28;19919;-70
2022/01/28 03:01:04;;;;;;;;;;;4.70;61.00;;;;;;6320921;28;19911;-70
2022/01/28 03:04:07;;;;;;;;;;;4.70;61.00;;;;;;6303045;28;19908;-70
2022/01/28 03:07:07;;;;;;;;;;;4.70;61.00;;;;;;6302971;28;19973;-70
2022/01/28 03:16:12;;;;;;;;;;;4.70;60.90;;;;;;6320564;28;19912;-70
2022/01/28 03:19:17;;;;;;;;;;;4.60;60.70;;;;;;6320416;28;19926;-71
2022/01/28 03:22:18;;;;;;;;;;;4.60;60.80;;;;;;6302679;28;19911;-70
2022/01/28 03:25:19;;;;;;;;;;;4.50;60.60;;;;;;6301226;28;20253;-71
2022/01/28 03:28:20;;;;;;;;;;;4.50;60.70;;;;;;6320131;28;19970;-71
2022/01/28 03:31:21;;;;;;;;;;;4.40;60.90;;;;;;6319948;28;19908;-71
2022/01/28 03:34:22;;;;;;;;;;;4.40;61.10;;;;;;6301999;28;19908;-71
2022/01/28 03:37:23;;;;;;;;;;;4.40;61.30;;;;;;6285424;28;20369;-71
2022/01/28 03:40:24;;;;;;;;;;;4.40;61.20;;;;;;6301518;28;19939;-70
2022/01/28 03:43:25;;;;;;;;;;;4.40;61.10;;;;;;6319173;28;19908;-71
2022/01/28 03:46:25;;;;;;;;;;;4.40;61.00;;;;;;6301470;28;19908;-70
2022/01/28 03:49:26;;;;;;;;;;;4.40;61.10;;;;;;6301868;28;19908;-71
2022/01/28 03:52:27;;;;;;;;;;;4.40;61.00;;;;;;6301602;28;19912;-70
2022/01/28 03:55:28;;;;;;;;;;;4.40;60.90;;;;;;6284930;28;19907;-71
2022/01/28 03:58:28;;;;;;;;;;;4.50;60.90;;;;;;6301352;28;19914;-69
2022/01/28 04:01:34;;;;;;;;;;;4.50;60.80;;;;;;6301306;28;19908;-71
2022/01/28 04:14:29;;;;;;;;;;;4.40;60.60;;;;;;6214416;28;20374;-70
2022/01/28 04:17:30;;;;;;;;;;;4.40;60.60;;;;;;6217237;28;20036;-71
2022/01/28 04:20:31;;;;;;;;;;;4.40;60.70;;;;;;6200748;28;19917;-70
2022/01/28 04:23:32;;;;;;;;;;;4.40;60.70;;;;;;6200344;28;19921;-70
2022/01/28 04:26:32;;;;;;;;;;;4.50;60.70;;;;;;6200951;28;20350;-70
2022/01/28 04:29:33;;;;;;;;;;;4.50;60.60;;;;;;6199201;28;19914;-72
2022/01/28 04:32:35;;;;;;;;;;;4.50;60.60;;;;;;6216344;28;19909;-70
2022/01/28 04:35:36;;;;;;;;;;;4.60;60.40;;;;;;6213467;28;19910;-70
2022/01/28 04:38:51;;;;;;;;;;;4.60;60.20;;;;;;6216165;28;20113;-70
2022/01/28 04:51:50;;;;;;;;;;;4.50;60.10;;;;;;6216325;28;19913;-71
2022/01/28 05:29:34;;;;;;;;;;;4.60;59.90;;;;;;6175508;28;20270;-70
2022/01/28 05:32:34;;;;;;;;;;;4.50;59.80;;;;;;6175790;28;20008;-70
2022/01/28 05:35:35;;;;;;;;;;;4.60;59.90;;;;;;6242658;28;19909;-71
2022/01/28 05:38:36;;;;;;;;;;;4.60;59.90;;;;;;6265889;28;19919;-70
2022/01/28 05:41:36;;;;;;;;;;;4.70;59.80;;;;;;6267649;28;19908;-70
2022/01/28 05:44:37;;;;;;;;;;;4.70;59.60;;;;;;6267367;28;19908;-71
2022/01/28 05:47:38;;;;;;;;;;;4.70;59.60;;;;;;6267161;28;20399;-71
2022/01/28 05:50:39;;;;;;;;;;;4.70;59.60;;;;;;6268011;28;19919;-70
2022/01/28 05:53:39;;;;;;;;;;;4.70;59.60;;;;;;6267856;28;19966;-71
2022/01/28 05:56:41;;;;;;;;;;;4.70;59.50;;;;;;6267766;28;20007;-70
2022/01/28 05:59:42;;;;;;;;;;;4.80;59.50;;;;;;6271534;28;19974;-70
2022/01/28 06:02:43;;;;;;;;;;;4.80;59.40;;;;;;6271403;28;20305;-70
2022/01/28 06:05:45;;;;;;;;;;;4.80;59.10;;;;;;6271155;28;19962;-70
2022/01/28 06:08:46;;;;;;;;;;;4.70;59.00;;;;;;6270856;28;19919;-70
2022/01/28 06:11:47;;;;;;;;;;;4.70;59.00;;;;;;6253649;28;19963;-72
2022/01/28 06:14:47;;;;;;;;;;;4.70;58.80;;;;;;6270431;28;19909;-72
2022/01/28 06:17:48;;;;;;;;;;;4.70;58.80;;;;;;6270700;28;19917;-70
2022/01/28 06:20:49;;;;;;;;;;;4.70;58.80;;;;;;6270388;28;19917;-70
2022/01/28 06:23:52;;;;;;;;;;;4.70;58.90;;;;;;6266988;28;19916;-71
2022/01/28 06:26:52;;;;;;;;;;;4.70;58.90;;;;;;6300830;28;19908;-71
2022/01/28 06:29:53;;;;;;;;;;;4.70;58.80;;;;;;6319878;28;19923;-72
2022/01/28 06:32:54;;;;;;;;;;;4.70;58.70;;;;;;6321334;28;19915;-71
2022/01/28 06:35:55;;;;;;;;;;;4.70;58.60;;;;;;6310383;28;19915;-71
2022/01/28 06:38:55;;;;;;;;;;;4.70;58.60;;;;;;6297257;28;19912;-71
2022/01/28 06:41:56;;;;;;;;;;;4.70;58.70;;;;;;6320773;28;20371;-71
2022/01/28 06:44:57;;;;;;;;;;;4.70;58.70;;;;;;6320844;28;19908;-70
2022/01/28 06:47:58;;;;;;;;;;;4.70;58.70;;;;;;6303034;28;20011;-71
2022/01/28 06:50:58;;;;;;;;;;;4.70;58.60;;;;;;6303159;28;20252;-74
2022/01/28 06:53:59;;;;;;;;;;;4.70;58.70;;;;;;6320812;28;19923;-71
2022/01/28 06:57:00;;;;;;;;;;;4.70;58.60;;;;;;6302240;28;20399;-71
2022/01/28 07:00:01;;;;;;;;;;;4.70;58.60;;;;;;6296159;28;20575;-70
2022/01/28 07:03:12;;;;;;;;;;;4.60;58.50;;;;;;6302722;28;19908;-70
2022/01/28 07:06:14;;;;;;;;;;;4.60;58.50;;;;;;6320321;28;19923;-70
2022/01/28 07:09:15;;;;;;;;;;;4.60;58.50;;;;;;6316653;28;19908;-69
2022/01/28 07:12:16;;;;;;;;;;;4.50;58.50;;;;;;6319763;28;20449;-70
2022/01/28 07:15:17;;;;;;;;;;;4.50;58.50;;;;;;6302123;28;19912;-70
2022/01/28 07:18:18;;;;;;;;;;;4.50;58.60;;;;;;6319671;28;19918;-70
2022/01/28 07:21:18;;;;;;;;;;;4.50;58.60;;;;;;6301501;28;19958;-72
2022/01/28 07:24:19;;;;;;;;;;;4.50;58.60;;;;;;6300761;28;19927;-70
2022/01/28 07:27:20;;;;;;;;;;;4.50;58.50;;;;;;6301335;28;19942;-70
2022/01/28 07:30:21;;;;;;;;;;;4.50;58.50;;;;;;6301401;28;19915;-69
2022/01/28 07:33:22;;;;;;;;;;;4.60;58.50;;;;;;6279221;28;20017;-70
2022/01/28 07:36:22;;;;;;;;;;;4.60;58.30;;;;;;6319288;28;19920;-71
2022/01/28 07:39:23;;;;;;;;;;;4.70;58.20;;;;;;6297065;28;19960;-70
2022/01/28 07:42:25;;;;;;;;;;;4.60;58.10;;;;;;6284365;28;19986;-70
2022/01/28 07:45:26;;;;;;;;;;;4.60;58.10;;;;;;6300992;28;19908;-70
2022/01/28 07:48:27;;;;;;;;;;;4.60;58.10;;;;;;6301137;28;19908;-70
2022/01/28 07:51:28;;;;;;;;;;;4.70;58.10;;;;;;6284250;28;19912;-70
2022/01/28 07:54:28;;;;;;;;;;;4.70;58.00;;;;;;6284072;28;20011;-70
2022/01/28 07:57:30;;;;;;;;;;;4.70;58.00;;;;;;6300679;28;19919;-70
2022/01/28 08:00:31;;;;;;;;;;;4.80;57.90;;;;;;6284171;28;19912;-71
2022/01/28 08:03:31;;;;;;;;;;;4.80;57.90;;;;;;6300501;28;19910;-69
2022/01/28 08:06:32;;;;;;;;;;;4.80;57.80;;;;;;6300783;28;19972;-70
2022/01/28 08:09:33;;;;;;;;;;;4.80;57.70;;;;;;6316406;28;19981;-70
2022/01/28 08:12:43;;;;;;;;;;;4.80;57.50;;;;;;6318479;28;20376;-70
2022/01/28 08:15:43;;;;;;;;;;;4.80;57.40;;;;;;6297411;28;19994;-70
2022/01/28 08:18:44;;;;;;;;;;;4.80;57.50;;;;;;6298511;28;19927;-70
2022/01/28 08:21:45;;;;;;;;;;;4.80;57.40;;;;;;6296882;28;19908;-71
2022/01/28 08:24:46;;;;;;;;;;;4.90;57.40;;;;;;6291033;28;19916;-70
2022/01/28 08:27:47;;;;;;;;;;;4.90;57.30;;;;;;6317087;28;19908;-70
2022/01/28 08:30:48;;;;;;;;;;;4.90;57.10;;;;;;6299738;28;19908;-70
2022/01/28 08:33:48;;;;;;;;;;;5.00;57.00;;;;;;6299944;28;19915;-70
2022/01/28 08:36:49;;;;;;;;;;;5.00;57.00;;;;;;6298168;28;19907;-71
2022/01/28 08:39:50;;;;;;;;;;;5.00;56.80;;;;;;6282256;28;20256;-70
2022/01/28 08:42:51;;;;;;;;;;;5.00;56.80;;;;;;6282954;28;19908;-70
2022/01/28 08:45:52;;;;;;;;;;;5.00;56.80;;;;;;6299300;28;19915;-71
2022/01/28 08:48:52;;;;;;;;;;;5.00;56.70;;;;;;6299028;28;19964;-70
2022/01/28 08:51:53;;;;;;;;;;;5.10;56.80;;;;;;6293214;28;19912;-71
2022/01/28 08:54:54;;;;;;;;;;;5.10;56.80;;;;;;6297872;28;19911;-71
2022/01/28 08:57:56;;;;;;;;;;;5.10;56.80;;;;;;6316972;28;20011;-71
2022/01/28 09:00:57;;;;;;;;;;;5.10;56.80;;;;;;6299515;28;20332;-71
2022/01/28 09:03:58;;;;;;;;;;;5.20;56.80;;;;;;6275975;28;19919;-70
2022/01/28 09:06:59;;;;;;;;;;;5.10;56.60;;;;;;6299258;28;19908;-71
2022/01/28 09:10:10;;;;;;;;;;;5.10;56.70;;;;;;6297884;28;19947;-71
2022/01/28 09:13:21;;;;;;;;;;;5.10;56.80;;;;;;6311875;28;19919;-72
2022/01/28 09:16:22;;;;;;;;;;;5.10;56.80;;;;;;6282533;28;19930;-71
2022/01/28 09:19:23;;;;;;;;;;;5.20;56.70;;;;;;6298584;28;20356;-71
2022/01/28 09:22:24;;;;;;;;;;;5.30;56.70;;;;;;6281384;28;19952;-70
2022/01/28 09:25:25;;;;;;;;;;;5.40;56.70;;;;;;6298253;28;19916;-71
2022/01/28 09:28:26;;;;;;;;;;;5.40;56.30;;;;;;6298742;28;19930;-71
2022/01/28 09:31:27;;;;;;;;;;;5.40;56.30;;;;;;6316719;28;19908;-70
2022/01/28 09:34:28;;;;;;;;;;;5.40;56.30;;;;;;6302418;28;19908;-70
2022/01/28 09:37:29;;;;;;;;;;;5.40;56.20;;;;;;6321896;28;19919;-71
2022/01/28 09:40:29;;;;;;;;;;;5.40;56.20;;;;;;6321528;28;20230;-71
2022/01/28 09:43:31;;;;;;;;;;;5.50;56.20;;;;;;6286192;28;20448;-71
2022/01/28 09:46:33;;;;;;;;;;;5.60;56.00;;;;;;6321437;28;19907;-71
2022/01/28 09:49:34;;;;;;;;;;;5.70;56.00;;;;;;6302953;28;19927;-72
2022/01/28 09:52:35;;;;;;;;;;;5.70;55.80;;;;;;6303331;28;19955;-71
2022/01/28 09:55:36;;;;;;;;;;;5.70;55.70;;;;;;6303406;28;20360;-72
2022/01/28 09:58:37;;;;;;;;;;;5.80;55.70;;;;;;6303505;28;19908;-72
2022/01/28 10:01:48;;;;;;;;;;;5.80;55.60;;;;;;6286039;28;19995;-71
2022/01/28 10:04:48;;;;;;;;;;;5.90;55.60;;;;;;6286139;28;19915;-71
2022/01/28 10:07:59;;;;;;;;;;;6.00;55.60;;;;;;6320067;28;20345;-71
2022/01/28 10:11:10;;;;;;;;;;;6.10;55.20;;;;;;6302109;28;20341;-72
2022/01/28 10:14:17;;;;;;;;;;;6.20;55.10;;;;;;6302902;28;19961;-71
2022/01/28 10:17:17;;;;;;;;;;;6.20;54.80;;;;;;6297322;28;20240;-72
2022/01/28 10:20:21;;;;;;;;;;;6.20;54.60;;;;;;6285109;28;19923;-71
2022/01/28 10:23:22;;;;;;;;;;;6.30;54.70;;;;;;6320732;28;20356;-70
2022/01/28 10:26:27;;;;;;;;;;;6.30;54.60;;;;;;6319063;28;19919;-71
2022/01/28 10:29:30;;;;;;;;;;;6.40;54.60;;;;;;6302742;28;19919;-71
2022/01/28 10:32:31;;;;;;;;;;;6.50;54.60;;;;;;6302451;28;20348;-71
2022/01/28 10:35:32;;;;;;;;;;;6.60;54.50;;;;;;6285928;28;19908;-72
2022/01/28 10:38:37;;;;;;;;;;;6.70;54.30;;;;;;6317045;28;19908;-72
2022/01/28 10:41:46;;;;;;;;;;;6.90;54.10;;;;;;6298015;28;19908;-72
2022/01/28 10:44:53;;;;;;;;;;;6.90;53.70;;;;;;6284339;28;19908;-74
2022/01/28 10:47:55;;;;;;;;;;;7.00;53.60;;;;;;6320015;28;20555;-71
2022/01/28 10:50:58;;;;;;;;;;;7.10;53.50;;;;;;6283760;28;19908;-72
2022/01/28 10:54:02;;;;;;;;;;;7.00;53.30;;;;;;6302034;28;20288;-72
2022/01/28 10:57:04;;;;;;;;;;;7.20;53.10;;;;;;6301645;28;19915;-72
2022/01/28 11:00:05;;;;;;;;;;;7.20;52.90;;;;;;6319656;28;19912;-70
2022/01/28 11:03:08;;;;;;;;;;;7.30;52.80;;;;;;6300726;28;19908;-71
2022/01/28 11:06:09;;;;;;;;;;;7.30;52.70;;;;;;6285060;28;19934;-71
2022/01/28 11:09:10;;;;;;;;;;;7.30;52.80;;;;;;6301723;28;19908;-71
2022/01/28 11:12:12;;;;;;;;;;;7.30;52.80;;;;;;6300519;28;19962;-71
2022/01/28 11:15:13;;;;;;;;;;;7.30;52.70;;;;;;6301070;28;19912;-71
2022/01/28 11:18:14;;;;;;;;;;;7.30;52.60;;;;;;6300840;28;19912;-71
2022/01/28 11:21:17;;;;;;;;;;;7.30;52.70;;;;;;6300719;28;20037;-71
2022/01/28 11:24:21;;;;;;;;;;;7.50;52.70;;;;;;6310913;28;19924;-73
2022/01/28 11:27:25;;;;;;;;;;;7.60;52.50;;;;;;6300531;28;19947;-71
2022/01/28 11:30:28;;;;;;;;;;;7.80;52.40;;;;;;6300985;28;19908;-71
2022/01/28 11:33:41;;;;;;;;;;;7.90;52.20;;;;;;6300615;28;19988;-70
2022/01/28 11:36:42;;;;;;;;;;;8.00;51.60;;;;;;6318123;28;19923;-72
2022/01/28 11:39:46;;;;;;;;;;;8.00;51.30;;;;;;6299357;28;20344;-71
2022/01/28 11:42:47;;;;;;;;;;;7.90;51.10;;;;;;6300405;28;19908;-71
2022/01/28 11:45:59;;;;;;;;;;;7.90;51.30;;;;;;6318925;28;19999;-71
2022/01/28 11:49:04;;;;;;;;;;;7.80;51.20;;;;;;6284157;28;19973;-72
2022/01/28 11:52:25;;;;;;;;;;;7.70;51.30;;;;;;6318945;28;19908;-71
2022/01/28 11:55:26;;;;;;;;;;;7.80;51.50;;;;;;6317698;28;19912;-72
2022/01/28 11:58:46;;;;;;;;;;;7.90;51.60;;;;;;6283677;28;19919;-72
2022/01/28 12:01:47;;;;;;;;;;;7.90;51.50;;;;;;6318064;28;19912;-72
2022/01/28 12:04:48;;;;;;;;;;;8.00;51.30;;;;;;6300245;28;19978;-71
2022/01/28 12:07:49;;;;;;;;;;;8.10;51.00;;;;;;6296920;28;19912;-71
2022/01/28 12:10:51;;;;;;;;;;;8.20;51.10;;;;;;6298707;28;19965;-71
2022/01/28 12:14:04;;;;;;;;;;;8.20;51.00;;;;;;6315007;28;20268;-72
2022/01/28 12:17:24;;;;;;;;;;;8.30;50.90;;;;;;6283257;28;19907;-72
2022/01/28 12:20:36;;;;;;;;;;;8.40;50.90;;;;;;6299085;28;20014;-71
2022/01/28 12:23:38;;;;;;;;;;;8.50;50.80;;;;;;6298754;28;20537;-71
2022/01/28 12:26:57;;;;;;;;;;;8.60;50.50;;;;;;6299304;28;20372;-71
2022/01/28 12:30:00;;;;;;;;;;;8.60;50.40;;;;;;6317717;28;19961;-72
2022/01/28 12:33:00;;;;;;;;;;;8.70;50.30;;;;;;6282971;28;19908;-71
2022/01/28 12:36:12;;;;;;;;;;;8.80;50.20;;;;;;6282579;28;19942;-71
2022/01/28 12:39:32;;;;;;;;;;;8.90;50.00;;;;;;6296315;28;19919;-70
2022/01/28 12:42:38;;;;;;;;;;;8.90;49.80;;;;;;6299395;28;19922;-72
2022/01/28 12:45:39;;;;;;;;;;;8.90;50.40;;;;;;6299150;28;19973;-72
2022/01/28 12:48:48;;;;;;;;;;;8.80;49.80;;;;;;6298860;28;20014;-71
2022/01/28 12:51:52;;;;;;;;;;;8.80;50.00;;;;;;6299439;28;20542;-71
2022/01/28 12:54:53;;;;;;;;;;;8.70;50.00;;;;;;6299467;28;19912;-73
2022/01/28 12:57:54;;;;;;;;;;;8.60;50.00;;;;;;6282391;28;20405;-72
2022/01/28 13:01:01;;;;;;;;;;;8.50;50.10;;;;;;6299023;28;19912;-73
2022/01/28 13:04:10;;;;;;;;;;;8.40;50.20;;;;;;6299013;28;19908;-71
2022/01/28 13:10:28;;;;;;;;;;;8.20;50.60;;;;;;6306693;28;19919;-72
2022/01/28 13:13:29;;;;;;;;;;;8.10;50.80;;;;;;6325494;28;19908;-72
2022/01/28 13:16:29;;;;;;;;;;;8.10;50.90;;;;;;6307550;28;19974;-70
2022/01/28 13:19:30;;;;;;;;;;;8.20;51.00;;;;;;6307193;28;19912;-72
2022/01/28 13:22:31;;;;;;;;;;;8.20;51.00;;;;;;6306829;28;19908;-72
2022/01/28 13:25:32;;;;;;;;;;;8.30;51.00;;;;;;6298353;28;19998;-72
2022/01/28 13:28:33;;;;;;;;;;;8.30;50.90;;;;;;6299253;28;19920;-72
2022/01/28 13:31:34;;;;;;;;;;;8.30;50.90;;;;;;6300173;28;19947;-71
2022/01/28 13:34:46;;;;;;;;;;;8.30;50.90;;;;;;6300148;28;19954;-71
2022/01/28 13:37:55;;;;;;;;;;;8.30;50.90;;;;;;6296878;28;20496;-70
2022/01/28 13:40:56;;;;;;;;;;;8.30;50.90;;;;;;6298317;28;20354;-71
2022/01/28 13:44:00;;;;;;;;;;;8.40;50.90;;;;;;6281912;28;19917;-71
2022/01/28 13:47:02;;;;;;;;;;;8.40;50.80;;;;;;6298684;28;20000;-71
2022/01/28 13:50:03;;;;;;;;;;;8.50;50.70;;;;;;6298614;28;19919;-72
2022/01/28 13:53:19;;;;;;;;;;;8.50;50.60;;;;;;6300583;28;19912;-71
2022/01/28 13:56:24;;;;;;;;;;;8.50;50.60;;;;;;6299096;28;19955;-71
2022/01/28 13:59:29;;;;;;;;;;;8.50;50.70;;;;;;6300387;28;19912;-71
2022/01/28 14:02:38;;;;;;;;;;;8.60;50.60;;;;;;6299356;28;19970;-72
2022/01/28 14:05:53;;;;;;;;;;;8.50;50.50;;;;;;6300211;28;19908;-71
2022/01/28 14:09:04;;;;;;;;;;;8.50;50.50;;;;;;6292063;28;19984;-71
2022/01/28 14:12:05;;;;;;;;;;;8.40;50.50;;;;;;6289243;28;20086;-71
2022/01/28 14:15:39;;;;;;;;;;;8.40;50.50;;;;;;6299159;28;20312;-72
2022/01/28 14:18:31;;;;;;;;;;;8.30;50.60;;;;;;6296853;28;19917;-71
2022/01/28 14:21:32;;;;;;;;;;;8.30;50.70;;;;;;6295372;28;20389;-71
2022/01/28 14:24:35;;;;;;;;;;;8.20;50.90;;;;;;6294384;28;19920;-71
2022/01/28 14:30:41;;;;;;;;;;;8.20;51.10;;;;;;6288132;28;19915;-71
2022/01/28 14:33:45;;;;;;;;;;;8.20;51.30;;;;;;6295574;28;19908;-71
2022/01/28 14:36:46;;;;;;;;;;;8.30;51.30;;;;;;6293653;28;20417;-71
2022/01/28 14:39:47;;;;;;;;;;;8.30;51.30;;;;;;6291235;28;19912;-71
2022/01/28 14:42:47;;;;;;;;;;;8.30;51.30;;;;;;6286978;28;19927;-71
2022/01/28 14:45:48;;;;;;;;;;;8.30;51.30;;;;;;6294776;28;20270;-72
2022/01/28 14:48:49;;;;;;;;;;;8.20;51.30;;;;;;6293784;28;20096;-71
2022/01/28 14:51:53;;;;;;;;;;;8.20;51.60;;;;;;6293590;28;19908;-70
2022/01/28 14:54:55;;;;;;;;;;;8.30;51.50;;;;;;6294922;28;20059;-71
2022/01/28 14:57:56;;;;;;;;;;;8.20;51.40;;;;;;6286689;28;19919;-72
2022/01/28 15:00:56;;;;;;;;;;;8.30;51.40;;;;;;6294259;28;20249;-71
2022/01/28 15:03:58;;;;;;;;;;;8.30;51.50;;;;;;6293657;28;19908;-71
2022/01/28 15:06:59;;;;;;;;;;;8.30;51.50;;;;;;6293459;28;19992;-70
2022/01/28 15:10:00;;;;;;;;;;;8.40;51.60;;;;;;6293288;28;19916;-71
2022/01/28 15:13:01;;;;;;;;;;;8.40;51.50;;;;;;6293493;28;20003;-72
2022/01/28 15:16:02;;;;;;;;;;;8.40;51.40;;;;;;6293522;28;19908;-71
2022/01/28 15:19:03;;;;;;;;;;;8.40;51.50;;;;;;6293896;28;20443;-71
2022/01/28 15:22:04;;;;;;;;;;;8.40;51.50;;;;;;6293212;28;20368;-71
2022/01/28 15:25:05;;;;;;;;;;;8.40;51.50;;;;;;6292867;28;19927;-70
2022/01/28 15:28:13;;;;;;;;;;;8.40;51.60;;;;;;6293663;28;19945;-70
2022/01/28 15:37:47;;;;;;;;;;;8.30;52.70;;;;;;6287710;28;20051;-70
2022/01/28 15:40:48;;;;;;;;;;;8.20;53.10;;;;;;6292545;28;19912;-70
2022/01/28 15:43:49;;;;;;;;;;;8.20;53.60;;;;;;6276937;28;19939;-69
2022/01/28 15:46:53;;;;;;;;;;;8.10;53.80;;;;;;6281104;28;19912;-71
2022/01/28 15:49:53;;;;;;;;;;;8.10;54.10;;;;;;6283339;28;19912;-71
2022/01/28 15:52:55;;;;;;;;;;;8.00;54.90;;;;;;6283076;28;20018;-70
2022/01/28 15:55:56;;;;;;;;;;;7.90;54.50;;;;;;6270499;28;19977;-70
2022/01/28 15:58:56;;;;;;;;;;;7.90;54.60;;;;;;6291280;28;19916;-70
2022/01/28 16:01:57;;;;;;;;;;;7.80;54.70;;;;;;6273557;28;19920;-69
2022/01/28 16:04:58;;;;;;;;;;;7.80;54.80;;;;;;6291995;28;20011;-71
2022/01/28 16:07:59;;;;;;;;;;;7.70;54.80;;;;;;6286912;28;19973;-69
2022/01/28 16:11:15;;;;;;;;;;;7.60;54.80;;;;;;6290643;28;19912;-70
2022/01/28 16:17:36;;;;;;;;;;;7.60;54.90;;;;;;6288653;28;19919;-70
2022/01/28 16:20:38;;;;;;;;;;;7.50;54.90;;;;;;6288807;28;20209;-71
2022/01/28 16:23:38;;;;;;;;;;;7.50;55.00;;;;;;6290322;28;19962;-70
2022/01/28 16:26:39;;;;;;;;;;;7.40;55.00;;;;;;6297678;28;19908;-70
2022/01/28 16:29:41;;;;;;;;;;;7.40;55.10;;;;;;6312236;28;19915;-70
2022/01/28 16:32:43;;;;;;;;;;;7.40;55.10;;;;;;6297181;28;19948;-70
2022/01/28 16:35:44;;;;;;;;;;;7.30;55.10;;;;;;6315986;28;20230;-69
2022/01/28 16:38:45;;;;;;;;;;;7.30;55.20;;;;;;6292730;28;19919;-70
2022/01/28 16:41:46;;;;;;;;;;;7.40;55.20;;;;;;6289024;28;20440;-70
2022/01/28 16:44:53;;;;;;;;;;;7.40;55.10;;;;;;6271204;28;19912;-71
2022/01/28 16:47:56;;;;;;;;;;;7.40;55.10;;;;;;6293924;28;19999;-70
2022/01/28 16:50:57;;;;;;;;;;;7.30;55.00;;;;;;6276827;28;20454;-72
2022/01/28 16:53:58;;;;;;;;;;;7.40;55.10;;;;;;6285863;28;19981;-72
2022/01/28 16:56:59;;;;;;;;;;;7.30;55.10;;;;;;6284839;28;20252;-72
2022/01/28 17:00:00;;;;;;;;;;;7.30;55.10;;;;;;6282452;28;19916;-71
2022/01/28 17:03:01;;;;;;;;;;;7.40;55.10;;;;;;6290795;28;20003;-71
2022/01/28 17:06:05;;;;;;;;;;;7.40;55.10;;;;;;6280909;28;19919;-70
2022/01/28 17:09:06;;;;;;;;;;;7.40;55.10;;;;;;6315916;28;20398;-71
2022/01/28 17:15:16;;;;;;;;;;;7.40;55.10;;;;;;6291533;28;19920;-71
2022/01/28 17:18:17;;;;;;;;;;;7.40;55.10;;;;;;6316766;28;19961;-71
2022/01/28 17:21:18;;;;;;;;;;;7.40;55.10;;;;;;6299269;28;20031;-72
2022/01/28 17:24:19;;;;;;;;;;;7.40;55.00;;;;;;6298740;28;19916;-72
2022/01/28 17:27:19;;;;;;;;;;;7.30;55.00;;;;;;6293888;28;19919;-70
2022/01/28 17:30:21;;;;;;;;;;;7.30;55.30;;;;;;6299579;28;20397;-69
2022/01/28 17:33:22;;;;;;;;;;;7.20;55.60;;;;;;6299434;28;19912;-70
2022/01/28 17:36:23;;;;;;;;;;;7.20;55.70;;;;;;6311017;28;20119;-71
2022/01/28 17:39:24;;;;;;;;;;;7.20;56.00;;;;;;6289753;28;19935;-69
2022/01/28 17:42:25;;;;;;;;;;;7.10;56.20;;;;;;6297965;28;19940;-70
2022/01/28 17:45:25;;;;;;;;;;;7.10;56.40;;;;;;6317084;28;19915;-70
2022/01/28 17:48:26;;;;;;;;;;;7.10;56.60;;;;;;6299253;28;19909;-70
2022/01/28 17:51:27;;;;;;;;;;;7.10;56.80;;;;;;6282607;28;19908;-70
2022/01/28 17:54:28;;;;;;;;;;;7.00;56.90;;;;;;6300630;28;19931;-71
2022/01/28 17:57:28;;;;;;;;;;;7.00;57.00;;;;;;6303844;28;20002;-70
2022/01/28 18:00:31;;;;;;;;;;;7.00;57.10;;;;;;6283704;28;19955;-71
2022/01/28 18:03:33;;;;;;;;;;;6.90;57.00;;;;;;6293098;28;19919;-70
2022/01/28 18:06:33;;;;;;;;;;;7.00;57.00;;;;;;6302825;28;19969;-72
2022/01/28 18:09:35;;;;;;;;;;;7.00;56.90;;;;;;6320379;28;19920;-71
2022/01/28 18:12:36;;;;;;;;;;;7.00;56.80;;;;;;6314050;28;20454;-72
2022/01/28 18:15:37;;;;;;;;;;;7.00;56.70;;;;;;6320716;28;19908;-71
2022/01/28 18:18:37;;;;;;;;;;;7.00;56.50;;;;;;6320521;28;19908;-71
2022/01/28 18:21:39;;;;;;;;;;;7.00;56.50;;;;;;6302325;28;19923;-70
2022/01/28 18:24:39;;;;;;;;;;;7.00;56.50;;;;;;6302247;28;19919;-72
2022/01/28 18:27:40;;;;;;;;;;;7.00;56.50;;;;;;6285750;28;20322;-71
2022/01/28 18:30:41;;;;;;;;;;;7.00;56.50;;;;;;6305554;28;20559;-72
2022/01/28 18:33:41;;;;;;;;;;;7.00;56.60;;;;;;6315182;28;19938;-71
2022/01/28 18:36:42;;;;;;;;;;;7.00;56.50;;;;;;6302340;28;19908;-71
2022/01/28 18:39:43;;;;;;;;;;;7.00;56.50;;;;;;6318011;28;19912;-70
2022/01/28 18:45:48;;;;;;;;;;;7.00;56.50;;;;;;6295711;28;19931;-71
2022/01/28 18:48:49;;;;;;;;;;;6.90;57.00;;;;;;6301054;28;19911;-71
2022/01/28 18:51:49;;;;;;;;;;;6.90;56.40;;;;;;6276981;28;19916;-70
2022/01/28 18:54:50;;;;;;;;;;;6.90;56.40;;;;;;6299012;28;20425;-71
2022/01/28 18:57:52;;;;;;;;;;;7.00;56.50;;;;;;6301662;28;20396;-72
2022/01/28 19:00:53;;;;;;;;;;;7.00;56.40;;;;;;6290389;28;19960;-70
2022/01/28 19:03:54;;;;;;;;;;;7.00;56.40;;;;;;6279255;28;20021;-70
2022/01/28 19:06:56;;;;;;;;;;;7.00;56.40;;;;;;6300410;28;19908;-69
2022/01/28 19:09:56;;;;;;;;;;;7.00;56.30;;;;;;6297561;28;19955;-67
2022/01/28 19:12:57;;;;;;;;;;;7.10;56.30;;;;;;6305140;28;19908;-68
2022/01/28 19:15:58;;;;;;;;;;;7.10;56.30;;;;;;6289950;28;19907;-69
2022/01/28 19:18:59;;;;;;;;;;;7.10;56.40;;;;;;6287699;28;19908;-68
2022/01/28 19:22:00;;;;;;;;;;;7.10;56.50;;;;;;6287185;28;19923;-69
2022/01/28 19:25:01;;;;;;;;;;;7.10;56.60;;;;;;6289794;28;19927;-68
2022/01/28 19:28:01;;;;;;;;;;;7.00;56.60;;;;;;6288440;28;20253;-67
2022/01/28 19:31:03;;;;;;;;;;;7.00;56.70;;;;;;6303272;28;19908;-67
2022/01/28 19:34:03;;;;;;;;;;;7.00;56.80;;;;;;6272275;28;19920;-68
2022/01/28 19:37:04;;;;;;;;;;;7.00;56.80;;;;;;6288599;28;20127;-67
2022/01/28 19:40:06;;;;;;;;;;;7.00;56.90;;;;;;6297924;28;19911;-69
2022/01/28 19:43:07;;;;;;;;;;;7.00;56.90;;;;;;6300142;28;20477;-68
2022/01/28 19:46:08;;;;;;;;;;;7.00;56.90;;;;;;6311153;28;19908;-69
2022/01/28 19:49:11;;;;;;;;;;;7.00;56.90;;;;;;6306427;28;20263;-68
2022/01/28 19:52:12;;;;;;;;;;;7.00;56.90;;;;;;6285842;28;20337;-69
2022/01/28 19:55:13;;;;;;;;;;;7.00;56.90;;;;;;6307251;28;19919;-71